createdAt,value
2019-02-26T00:00:00.697Z,3.4
2019-02-26T00:05:02.892Z,3.3
2019-02-26T00:15:02.516Z,3.3
2019-02-26T00:20:00.663Z,3.2
2019-02-26T00:30:07.297Z,3.2
2019-02-26T00:35:01.877Z,3.3
2019-02-26T00:45:03.269Z,3.3
2019-02-26T00:50:00.667Z,3.2
2019-02-26T01:00:02.757Z,3.2
2019-02-26T01:05:00.779Z,3.1
2019-02-26T01:15:02.484Z,3.2
2019-02-26T01:25:00.712Z,3.1
2019-02-26T01:30:03.244Z,3.2
2019-02-26T01:35:01.301Z,3.0
2019-02-26T01:45:00.738Z,3.0
2019-02-26T01:50:00.733Z,3.1
2019-02-26T01:55:02.744Z,3.0
2019-02-26T02:00:00.652Z,3.0
2019-02-26T02:15:00.784Z,3.1
2019-02-26T02:25:00.720Z,3.2
2019-02-26T02:30:00.658Z,3.2
2019-02-26T02:45:00.796Z,3.2
2019-02-26T03:00:02.851Z,3.2
2019-02-26T03:05:00.735Z,3.3
2019-02-26T03:10:03.911Z,3.4
2019-02-26T03:15:02.238Z,3.4
2019-02-26T03:20:02.520Z,3.5
2019-02-26T03:30:01.870Z,3.4
2019-02-26T03:35:02.721Z,3.3
2019-02-26T03:45:02.891Z,3.2
2019-02-26T03:50:00.743Z,3.1
2019-02-26T03:55:03.242Z,3.2
2019-02-26T04:00:03.538Z,3.1
2019-02-26T04:15:00.820Z,3.1
2019-02-26T04:30:00.686Z,3.1
2019-02-26T04:45:02.258Z,3.0
2019-02-26T05:00:01.220Z,2.7
2019-02-26T05:05:00.458Z,3.1
2019-02-26T05:15:00.549Z,3.1
2019-02-26T05:25:00.674Z,3.2
2019-02-26T05:30:00.840Z,3.1
2019-02-26T05:45:02.816Z,3.0
2019-02-26T06:00:02.401Z,3.1
2019-02-26T06:15:04.232Z,3.2
2019-02-26T06:20:02.552Z,3.1
2019-02-26T06:30:03.155Z,3.1
2019-02-26T06:45:00.421Z,3.1
2019-02-26T06:50:02.823Z,3.0
2019-02-26T06:55:02.877Z,2.9
2019-02-26T07:00:01.128Z,2.9
2019-02-26T07:05:00.425Z,3.0
2019-02-26T07:10:00.426Z,2.9
2019-02-26T07:15:00.700Z,3.1
2019-02-26T07:20:03.067Z,3.3
2019-02-26T07:30:00.593Z,3.3
2019-02-26T07:45:01.098Z,3.3
2019-02-26T07:55:00.459Z,3.2
2019-02-26T08:00:00.992Z,3.2
2019-02-26T08:15:02.310Z,3.3
2019-02-26T08:25:00.571Z,3.4
2019-02-26T08:30:00.879Z,3.4
2019-02-26T08:45:00.734Z,3.4
2019-02-26T08:50:01.621Z,3.3
2019-02-26T08:55:00.504Z,3.4
2019-02-26T09:00:00.454Z,3.4
2019-02-26T09:05:01.556Z,3.3
2019-02-26T09:10:00.524Z,3.2
2019-02-26T09:15:00.926Z,3.3
2019-02-26T09:20:09.111Z,3.2
2019-02-26T09:25:02.159Z,4.2
2019-02-26T09:30:00.524Z,5.4
2019-02-26T09:35:02.235Z,7.4
2019-02-26T09:40:02.665Z,9.3
2019-02-26T09:45:00.676Z,12.0
2019-02-26T09:50:00.513Z,13.7
2019-02-26T09:55:00.628Z,15.8
2019-02-26T10:00:02.912Z,17.0
2019-02-26T10:05:00.563Z,19.0
2019-02-26T10:10:03.373Z,20.2
2019-02-26T10:15:02.289Z,22.2
2019-02-26T10:20:01.730Z,23.4
2019-02-26T10:25:00.523Z,25.9
2019-02-26T10:30:02.714Z,27.7
2019-02-26T10:35:01.707Z,30.3
2019-02-26T10:40:00.495Z,32.3
2019-02-26T10:45:00.566Z,33.3
2019-02-26T10:50:00.484Z,32.9
2019-02-26T10:55:00.551Z,33.2
2019-02-26T11:00:02.331Z,33.2
2019-02-26T11:05:00.597Z,33.3
2019-02-26T11:10:01.002Z,35.1
2019-02-26T11:15:01.277Z,36.6
2019-02-26T11:20:01.134Z,38.4
2019-02-26T11:25:01.229Z,40.2
2019-02-26T11:30:02.058Z,41.9
2019-02-26T11:35:02.325Z,42.2
2019-02-26T11:40:02.745Z,43.8
2019-02-26T11:45:00.561Z,44.4
2019-02-26T11:50:02.519Z,44.5
2019-02-26T11:55:03.874Z,45.0
2019-02-26T12:00:01.844Z,47.0
2019-02-26T12:05:02.835Z,47.6
2019-02-26T12:10:06.392Z,48.5
2019-02-26T12:15:01.959Z,48.5
2019-02-26T12:20:00.701Z,48.8
2019-02-26T12:25:02.565Z,48.2
2019-02-26T12:30:00.554Z,48.3
2019-02-26T12:35:00.615Z,48.5
2019-02-26T12:40:00.653Z,50.4
2019-02-26T12:45:03.374Z,51.2
2019-02-26T12:50:01.640Z,52.3
2019-02-26T12:55:04.114Z,53.5
2019-02-26T13:20:01.618Z,52.7
2019-02-26T13:25:03.551Z,53.5
2019-02-26T13:30:03.112Z,53.5
2019-02-26T13:35:05.138Z,53.2
2019-02-26T13:40:00.683Z,53.7
2019-02-26T13:45:00.749Z,53.4
2019-02-26T13:50:00.692Z,53.5
2019-02-26T13:55:00.809Z,53.6
2019-02-26T14:00:00.659Z,53.5
2019-02-26T14:05:00.782Z,53.0
2019-02-26T14:10:00.656Z,53.6
2019-02-26T14:15:00.718Z,53.8
2019-02-26T14:20:00.658Z,54.1
2019-02-26T14:25:00.729Z,54.4
2019-02-26T14:30:00.680Z,54.5
2019-02-26T14:35:00.794Z,54.0
2019-02-26T14:40:00.666Z,53.9
2019-02-26T14:45:00.730Z,53.0
2019-02-26T14:50:02.277Z,52.6
2019-02-26T14:55:00.738Z,52.3
2019-02-26T15:00:05.675Z,51.6
2019-02-26T15:05:05.748Z,52.0
2019-02-26T15:10:00.752Z,51.9
2019-02-26T15:15:00.812Z,51.8
2019-02-26T15:20:00.695Z,51.0
2019-02-26T15:25:00.747Z,50.0
2019-02-26T15:30:01.762Z,47.9
2019-02-26T15:35:05.765Z,46.5
2019-02-26T15:40:02.133Z,45.0
2019-02-26T15:45:05.733Z,43.5
2019-02-26T15:55:00.756Z,42.9
2019-02-26T16:00:00.686Z,43.5
2019-02-26T16:05:05.783Z,43.8
2019-02-26T16:10:00.694Z,44.1
2019-02-26T16:15:07.923Z,44.3
2019-02-26T16:20:00.707Z,44.4
2019-02-26T16:25:00.761Z,43.2
2019-02-26T16:30:00.697Z,43.2
2019-02-26T16:35:00.767Z,43.7
2019-02-26T16:40:00.813Z,43.9
2019-02-26T16:45:01.244Z,43.3
2019-02-26T16:50:11.701Z,42.9
2019-02-26T16:55:00.764Z,41.8
2019-02-26T17:00:00.729Z,40.8
2019-02-26T17:05:00.771Z,39.2
2019-02-26T17:10:00.708Z,38.6
2019-02-26T17:15:00.840Z,37.9
2019-02-26T17:20:00.717Z,38.3
2019-02-26T17:30:05.782Z,39.3
2019-02-26T17:35:00.775Z,38.4
2019-02-26T17:40:02.628Z,37.4
2019-02-26T17:45:00.828Z,36.0
2019-02-26T17:50:05.718Z,34.6
2019-02-26T17:55:00.844Z,31.4
2019-02-26T18:00:00.716Z,30.1
2019-02-26T18:05:01.487Z,29.3
2019-02-26T18:10:00.744Z,27.4
2019-02-26T18:15:00.821Z,26.8
2019-02-26T18:20:00.717Z,26.7
2019-02-26T18:25:00.853Z,26.6
2019-02-26T18:30:00.718Z,26.5
2019-02-26T18:35:00.726Z,26.7
2019-02-26T18:40:00.724Z,25.8
2019-02-26T18:45:00.878Z,25.6
2019-02-26T18:50:00.756Z,24.9
2019-02-26T18:55:00.813Z,24.3
2019-02-26T19:00:00.733Z,24.8
2019-02-26T19:05:00.836Z,25.0
2019-02-26T19:10:00.719Z,25.7
2019-02-26T19:15:00.732Z,26.5
2019-02-26T19:20:00.725Z,27.3
2019-02-26T19:25:00.855Z,27.5
2019-02-26T19:30:03.787Z,27.4
2019-02-26T19:35:01.108Z,27.1
2019-02-26T19:40:00.745Z,26.4
2019-02-26T19:45:00.738Z,25.8
2019-02-26T19:50:00.735Z,24.2
2019-02-26T19:55:00.861Z,23.3
2019-02-26T20:00:00.972Z,22.3
2019-02-26T20:05:00.736Z,21.7
2019-02-26T20:10:00.739Z,21.8
2019-02-26T20:15:00.733Z,22.4
2019-02-26T20:20:04.867Z,22.8
2019-02-26T20:30:00.819Z,21.8
2019-02-26T20:35:00.871Z,20.2
2019-02-26T20:40:00.761Z,18.4
2019-02-26T20:45:00.752Z,17.2
2019-02-26T20:50:00.761Z,16.9
2019-02-26T20:55:00.817Z,17.4
2019-02-26T21:00:00.769Z,17.3
2019-02-26T21:05:00.996Z,17.9
2019-02-26T21:10:03.634Z,18.8
2019-02-26T21:15:00.759Z,18.8
2019-02-26T21:20:00.756Z,19.6
2019-02-26T21:25:00.931Z,20.7
2019-02-26T21:30:00.763Z,21.4
2019-02-26T21:35:00.877Z,21.8
2019-02-26T21:40:07.137Z,21.6
2019-02-26T21:45:00.748Z,21.5
2019-02-26T21:50:00.786Z,21.2
2019-02-26T21:55:01.500Z,20.8
2019-02-26T22:00:05.050Z,19.2
2019-02-26T22:05:04.963Z,19.4
2019-02-26T22:10:00.809Z,18.9
2019-02-26T22:15:00.787Z,18.9
2019-02-26T22:20:00.805Z,18.8
2019-02-26T22:25:09.042Z,19.7
2019-02-26T22:30:00.776Z,19.7
2019-02-26T22:35:00.918Z,20.0
2019-02-26T22:40:00.777Z,19.5
2019-02-26T22:45:00.782Z,19.8
2019-02-26T22:50:00.778Z,19.1
2019-02-26T22:55:00.841Z,19.0
2019-02-26T23:00:00.813Z,18.9
2019-02-26T23:05:00.805Z,19.0
2019-02-26T23:10:00.811Z,19.1
2019-02-26T23:15:00.786Z,18.7
2019-02-26T23:20:00.792Z,18.9
2019-02-26T23:25:01.623Z,19.1
2019-02-26T23:30:00.796Z,19.1
2019-02-26T23:35:00.924Z,19.3
2019-02-26T23:40:03.155Z,21.1
2019-02-26T23:45:00.796Z,21.4
2019-02-26T23:50:00.827Z,22.8
2019-02-26T23:55:00.867Z,24.0
